createdAt,value
2022-08-07T01:12:53.933Z,101445.00
2022-08-07T01:15:35.814Z,101435.00
2022-08-07T01:18:30.745Z,101435.00
2022-08-07T01:21:22.753Z,101441.00
2022-08-07T01:23:59.812Z,101439.00
2022-08-07T01:26:38.670Z,101437.00
2022-08-07T01:29:12.825Z,101440.00
2022-08-07T01:31:48.118Z,101433.00
2022-08-07T01:34:30.082Z,101434.00
2022-08-07T01:37:06.195Z,101402.00
2022-08-07T01:39:46.456Z,101437.00
2022-08-07T01:42:39.473Z,101421.00
2022-08-07T01:45:18.405Z,101425.00
2022-08-07T01:48:20.851Z,101426.00
2022-08-07T01:50:51.265Z,101435.00
2022-08-07T01:54:12.593Z,101419.00
2022-08-07T01:56:33.939Z,101412.00
2022-08-07T01:59:24.025Z,101421.00
2022-08-07T02:02:11.746Z,101432.00
2022-08-07T02:05:15.989Z,101424.00
2022-08-07T02:08:13.995Z,101412.00
2022-08-07T02:10:55.314Z,101408.00
2022-08-07T02:13:56.444Z,101425.00
2022-08-07T02:16:33.297Z,101411.00
2022-08-07T02:20:05.434Z,101409.00
2022-08-07T02:22:07.745Z,101415.00
2022-08-07T02:24:45.310Z,101406.00
2022-08-07T02:27:34.385Z,101410.00
2022-08-07T02:30:10.813Z,101413.00
2022-08-07T02:33:03.804Z,101405.00
2022-08-07T02:36:30.214Z,101410.00
2022-08-07T02:38:50.881Z,101404.00
2022-08-07T02:41:33.167Z,101410.00
2022-08-07T02:44:08.994Z,101404.00
2022-08-07T02:46:46.783Z,101405.00
2022-08-07T02:49:55.683Z,101405.00
2022-08-07T02:52:32.084Z,101387.00
2022-08-07T02:55:27.967Z,101393.00
2022-08-07T02:58:11.524Z,101393.00
2022-08-07T03:00:50.636Z,101393.00
2022-08-07T03:03:29.537Z,101398.00
2022-08-07T03:06:32.114Z,101388.00
2022-08-07T03:09:11.128Z,101394.00
2022-08-07T03:11:52.304Z,101395.00
2022-08-07T03:14:31.877Z,101396.00
2022-08-07T03:17:08.790Z,101393.00
2022-08-07T03:19:43.646Z,101408.00
2022-08-07T03:22:30.713Z,101403.00
2022-08-07T03:25:04.929Z,101393.00
2022-08-07T03:27:59.117Z,101398.00
2022-08-07T03:30:34.333Z,101397.00
2022-08-07T03:33:11.662Z,101393.00
2022-08-07T03:35:50.425Z,101384.00
2022-08-07T03:38:29.375Z,101393.00
2022-08-07T03:41:03.962Z,101389.00
2022-08-07T03:43:39.638Z,101391.00
2022-08-07T03:46:31.852Z,101390.00
2022-08-07T03:49:10.613Z,101378.00
2022-08-07T03:51:47.286Z,101378.00
2022-08-07T03:54:35.726Z,101389.00
2022-08-07T03:57:18.504Z,101393.00
2022-08-07T04:00:14.849Z,101380.00
2022-08-07T04:02:49.422Z,101351.00
2022-08-07T04:05:28.779Z,101395.00
2022-08-07T04:08:18.412Z,101387.00
2022-08-07T04:10:54.514Z,101402.00
2022-08-07T04:14:10.248Z,101391.00
2022-08-07T04:16:43.008Z,101384.00
2022-08-07T04:19:50.857Z,101383.00
2022-08-07T04:22:29.524Z,101381.00
2022-08-07T04:25:11.832Z,101382.00
2022-08-07T04:28:00.612Z,101384.00
2022-08-07T04:30:39.375Z,101372.00
2022-08-07T04:33:29.393Z,101386.00
2022-08-07T04:36:06.605Z,101387.00
2022-08-07T04:38:42.175Z,101375.00
2022-08-07T04:41:19.129Z,101378.00
2022-08-07T04:44:12.690Z,101380.00
2022-08-07T04:47:08.213Z,101387.00
2022-08-07T04:50:04.163Z,101377.00
2022-08-07T04:52:51.752Z,101399.00
2022-08-07T04:58:09.599Z,101397.00
2022-08-07T04:59:15.799Z,101404.00
2022-08-07T05:01:50.560Z,101404.00
2022-08-07T05:04:44.023Z,101398.00
2022-08-07T05:07:36.928Z,101409.00
2022-08-07T05:10:30.747Z,101398.00
2022-08-07T05:14:56.261Z,101397.00
2022-08-07T05:16:10.628Z,101392.00
2022-08-07T05:18:52.130Z,101400.00
2022-08-07T05:22:00.655Z,101399.00
2022-08-07T05:24:30.578Z,101417.00
2022-08-07T05:28:03.290Z,101395.00
2022-08-07T05:30:13.773Z,101413.00
2022-08-07T05:33:05.848Z,101409.00
2022-08-07T05:35:42.221Z,101406.00
2022-08-07T05:38:59.484Z,101419.00
2022-08-07T05:41:15.836Z,101411.00
2022-08-07T05:44:11.865Z,101418.00
2022-08-07T05:46:51.295Z,101422.00
2022-08-07T05:49:25.807Z,101427.00
2022-08-07T05:52:00.535Z,101378.00
2022-08-07T05:54:53.306Z,101412.00
2022-08-07T05:57:37.907Z,101401.00
2022-08-07T06:00:18.825Z,101429.00
2022-08-07T06:02:57.222Z,101421.00
2022-08-07T06:05:37.805Z,101422.00
2022-08-07T06:08:30.620Z,101420.00
2022-08-07T06:11:10.692Z,101439.00
2022-08-07T06:14:12.467Z,101423.00
2022-08-07T06:16:41.001Z,101436.00
2022-08-07T06:19:17.847Z,101434.00
2022-08-07T06:22:16.733Z,101421.00
2022-08-07T06:24:58.160Z,101428.00
2022-08-07T06:28:00.656Z,101429.00
2022-08-07T06:30:35.410Z,101445.00
2022-08-07T06:33:16.666Z,101450.00
2022-08-07T06:36:13.351Z,101438.00
2022-08-07T06:38:59.569Z,101425.00
2022-08-07T06:42:00.658Z,101432.00
2022-08-07T06:44:39.759Z,101427.00
2022-08-07T06:47:15.420Z,101438.00
2022-08-07T06:49:58.670Z,101407.00
2022-08-07T06:52:47.870Z,101426.00
2022-08-07T06:55:52.659Z,101420.00
2022-08-07T06:58:28.733Z,101436.00
2022-08-07T07:01:05.137Z,101421.00
2022-08-07T07:03:50.228Z,101426.00
2022-08-07T07:06:39.356Z,101427.00
2022-08-07T07:09:31.911Z,101376.00
2022-08-07T07:12:31.509Z,101401.00
2022-08-07T07:15:26.239Z,101418.00
2022-08-07T07:18:08.728Z,101417.00
2022-08-07T07:20:51.474Z,101421.00
2022-08-07T07:24:09.725Z,101415.00
2022-08-07T07:26:34.960Z,101415.00
2022-08-07T07:29:39.837Z,101413.00
2022-08-07T07:32:14.256Z,101423.00
2022-08-07T07:34:59.201Z,101409.00
2022-08-07T07:37:49.482Z,101422.00
2022-08-07T07:40:28.884Z,101412.00
2022-08-07T07:43:15.488Z,101424.00
2022-08-07T07:46:37.408Z,101407.00
2022-08-07T07:48:49.855Z,101417.00
2022-08-07T07:51:58.084Z,101406.00
2022-08-07T07:54:31.841Z,101402.00
2022-08-07T07:57:11.300Z,101388.00
2022-08-07T07:59:52.125Z,101403.00
2022-08-07T08:02:35.212Z,101405.00
2022-08-07T08:05:15.055Z,101408.00
2022-08-07T08:08:00.066Z,101401.00
2022-08-07T08:10:38.781Z,101410.00
2022-08-07T08:13:15.878Z,101400.00
2022-08-07T08:15:58.624Z,101406.00
2022-08-07T08:18:37.673Z,101402.00
2022-08-07T08:21:55.859Z,101412.00
2022-08-07T08:24:57.211Z,101406.00
2022-08-07T08:28:01.813Z,101409.00
2022-08-07T08:30:42.507Z,101388.00
2022-08-07T08:33:21.983Z,101390.00
2022-08-07T08:35:57.789Z,101401.00
2022-08-07T08:38:41.094Z,101397.00
2022-08-07T08:41:22.942Z,101406.00
2022-08-07T08:44:07.833Z,101369.00
2022-08-07T08:46:49.150Z,101393.00
2022-08-07T08:49:46.378Z,101382.00
2022-08-07T08:52:30.412Z,101387.00
2022-08-07T08:55:54.585Z,101392.00
2022-08-07T08:58:29.536Z,101385.00
2022-08-07T09:01:18.675Z,101376.00
2022-08-07T09:04:13.460Z,101386.00
2022-08-07T09:07:00.483Z,101382.00
2022-08-07T09:09:57.214Z,101386.00
2022-08-07T09:12:54.070Z,101390.00
2022-08-07T09:16:25.455Z,101387.00
2022-08-07T09:19:06.998Z,101377.00
2022-08-07T09:22:09.713Z,101387.00
2022-08-07T09:25:07.053Z,101382.00
2022-08-07T09:28:01.896Z,101377.00
2022-08-07T09:30:59.583Z,101381.00
2022-08-07T09:34:07.892Z,101383.00
2022-08-07T09:36:55.901Z,101375.00
2022-08-07T09:39:54.266Z,101372.00
2022-08-07T09:42:50.418Z,101380.00
2022-08-07T09:47:50.852Z,101383.00
2022-08-07T09:50:01.949Z,101384.00
2022-08-07T09:52:15.745Z,101378.00
2022-08-07T09:54:59.277Z,101376.00
2022-08-07T09:58:18.154Z,101373.00
2022-08-07T10:01:50.997Z,101370.00
2022-08-07T10:04:33.470Z,101378.00
2022-08-07T10:08:07.232Z,101365.00
2022-08-07T10:11:16.807Z,101366.00
2022-08-07T10:14:03.708Z,101356.00
2022-08-07T10:17:14.165Z,101352.00
2022-08-07T10:20:13.223Z,101352.00
2022-08-07T10:23:10.575Z,101357.00
2022-08-07T10:26:04.504Z,101343.00
2022-08-07T10:28:57.936Z,101346.00
2022-08-07T10:32:06.480Z,101355.00
2022-08-07T10:35:20.539Z,101347.00
2022-08-07T10:38:35.402Z,101344.00
2022-08-07T10:41:51.230Z,101341.00
2022-08-07T10:44:28.715Z,101340.00
2022-08-07T10:47:27.176Z,101322.00
2022-08-07T10:50:25.696Z,101334.00
2022-08-07T10:53:12.179Z,101329.00
2022-08-07T10:56:06.301Z,101324.00
2022-08-07T10:59:13.584Z,101306.00
2022-08-07T11:02:04.838Z,101319.00
2022-08-07T11:05:10.229Z,101320.00
2022-08-07T11:08:00.544Z,101324.00
2022-08-07T11:10:59.425Z,101309.00
2022-08-07T11:14:43.825Z,101312.00
2022-08-07T11:16:51.359Z,101309.00
2022-08-07T11:19:39.690Z,101309.00
2022-08-07T11:22:32.324Z,101306.00
2022-08-07T11:25:24.195Z,101298.00
2022-08-07T11:28:16.718Z,101299.00
2022-08-07T11:31:00.862Z,101301.00
2022-08-07T11:33:59.122Z,101304.00
2022-08-07T11:36:50.951Z,101287.00
2022-08-07T11:40:00.558Z,101294.00
2022-08-07T11:42:52.044Z,101287.00
2022-08-07T11:45:53.182Z,101293.00
2022-08-07T11:49:50.244Z,101281.00
2022-08-07T11:52:29.054Z,101288.00
2022-08-07T11:56:26.074Z,101291.00
2022-08-07T11:58:33.366Z,101283.00
2022-08-07T12:02:00.060Z,101283.00
2022-08-07T12:04:52.504Z,101286.00
2022-08-07T12:07:39.057Z,101275.00
2022-08-07T12:10:23.758Z,101285.00
2022-08-07T12:13:11.393Z,101272.00
2022-08-07T12:16:06.949Z,101273.00
2022-08-07T12:18:56.887Z,101281.00
2022-08-07T12:22:36.669Z,101278.00
2022-08-07T12:25:17.841Z,101285.00
2022-08-07T12:28:17.121Z,101285.00
2022-08-07T12:31:17.199Z,101275.00
2022-08-07T12:34:03.978Z,101262.00
2022-08-07T12:36:39.743Z,101255.00
2022-08-07T12:39:42.122Z,101262.00
2022-08-07T12:42:27.164Z,101267.00
2022-08-07T12:45:09.087Z,101261.00
2022-08-07T12:47:50.785Z,101265.00
2022-08-07T12:50:40.350Z,101263.00
2022-08-07T12:54:02.843Z,101241.00
2022-08-07T12:56:35.580Z,101245.00
2022-08-07T12:59:22.780Z,101253.00
2022-08-07T13:02:14.155Z,101249.00
2022-08-07T13:05:14.694Z,101256.00
2022-08-07T13:08:19.235Z,101248.00
2022-08-07T13:11:09.252Z,101253.00
2022-08-07T13:14:09.040Z,101255.00
2022-08-07T13:16:55.602Z,101239.00
2022-08-07T13:19:50.489Z,101244.00
2022-08-07T13:22:32.936Z,101238.00
2022-08-07T13:25:24.350Z,101234.00
2022-08-07T13:28:14.396Z,101230.00
2022-08-07T13:31:12.926Z,101234.00
2022-08-07T13:34:33.242Z,101232.00
2022-08-07T13:36:59.419Z,101234.00
2022-08-07T13:40:32.728Z,101215.00
2022-08-07T13:42:41.743Z,101207.00
2022-08-07T13:46:06.751Z,101208.00
2022-08-07T13:48:27.941Z,101216.00
2022-08-07T13:51:27.292Z,101215.00
2022-08-07T13:54:08.542Z,101209.00
2022-08-07T13:56:55.530Z,101204.00
2022-08-07T13:59:34.578Z,101203.00
2022-08-07T14:02:33.255Z,101209.00
2022-08-07T14:05:12.825Z,101199.00
2022-08-07T14:08:00.641Z,101185.00
2022-08-07T14:10:42.484Z,101187.00
2022-08-07T14:13:33.627Z,101191.00
2022-08-07T14:16:16.072Z,101195.00
2022-08-07T14:18:57.266Z,101192.00
2022-08-07T14:22:02.873Z,101193.00
2022-08-07T14:24:41.518Z,101189.00
2022-08-07T14:28:10.587Z,101194.00
2022-08-07T14:30:15.845Z,101196.00
2022-08-07T14:33:10.023Z,101192.00
2022-08-07T14:38:39.294Z,101184.00
2022-08-07T14:41:34.137Z,101185.00
2022-08-07T14:44:24.975Z,101181.00
2022-08-07T14:47:14.209Z,101171.00
2022-08-07T14:49:57.099Z,101175.00
2022-08-07T14:52:34.019Z,101174.00
2022-08-07T14:55:11.234Z,101152.00
2022-08-07T14:57:57.851Z,101173.00
